createdAt,value
2019-05-20T00:00:42.142Z,15.40
2019-05-20T00:03:45.708Z,15.30
2019-05-20T00:06:49.244Z,15.10
2019-05-20T00:09:52.729Z,15.00
2019-05-20T00:12:56.185Z,14.80
2019-05-20T00:15:59.686Z,14.70
2019-05-20T00:19:03.237Z,14.50
2019-05-20T00:22:06.742Z,14.40
2019-05-20T00:25:10.572Z,14.30
2019-05-20T00:28:14.037Z,14.20
2019-05-20T00:31:17.597Z,14.20
2019-05-20T00:34:34.127Z,14.20
2019-05-20T00:37:26.277Z,14.10
2019-05-20T00:40:29.764Z,14.00
2019-05-20T00:43:33.312Z,14.00
2019-05-20T00:46:36.877Z,14.00
2019-05-20T00:49:40.413Z,14.10
2019-05-20T00:52:43.966Z,14.00
2019-05-20T00:55:47.542Z,14.00
2019-05-20T00:58:51.225Z,14.10
2019-05-20T01:01:54.712Z,14.10
2019-05-20T01:04:58.185Z,14.10
2019-05-20T01:08:01.676Z,14.20
2019-05-20T01:11:05.190Z,14.20
2019-05-20T01:14:08.784Z,14.20
2019-05-20T01:17:12.242Z,14.30
2019-05-20T01:20:16.188Z,14.20
2019-05-20T01:23:19.680Z,14.20
2019-05-20T01:26:23.163Z,14.20
2019-05-20T01:29:26.691Z,14.20
2019-05-20T01:32:30.301Z,14.20
2019-05-20T01:35:33.854Z,14.20
2019-05-20T01:38:37.387Z,14.30
2019-05-20T01:41:40.869Z,14.30
2019-05-20T01:44:44.328Z,14.20
2019-05-20T01:47:47.829Z,14.10
2019-05-20T01:50:51.324Z,14.20
2019-05-20T01:53:54.784Z,14.10
2019-05-20T01:56:58.272Z,14.10
2019-05-20T02:00:01.765Z,14.10
2019-05-20T02:03:05.225Z,14.10
2019-05-20T02:06:09.061Z,14.10
2019-05-20T02:09:12.533Z,14.10
2019-05-20T02:12:16.165Z,14.10
2019-05-20T02:15:33.476Z,14.10
2019-05-20T02:18:36.969Z,14.10
2019-05-20T02:21:40.476Z,13.90
2019-05-20T02:24:43.933Z,13.80
2019-05-20T02:27:47.494Z,13.80
2019-05-20T02:30:51.043Z,13.60
2019-05-20T02:33:54.608Z,13.40
2019-05-20T02:36:58.249Z,13.40
2019-05-20T02:40:01.714Z,13.50
2019-05-20T02:43:05.722Z,13.50
2019-05-20T02:46:09.318Z,13.50
2019-05-20T02:49:12.898Z,13.50
2019-05-20T02:52:16.429Z,13.50
2019-05-20T02:55:20.061Z,13.50
2019-05-20T02:58:23.526Z,13.40
2019-05-20T03:01:27.476Z,13.50
2019-05-20T03:04:30.943Z,13.50
2019-05-20T03:07:34.520Z,13.50
2019-05-20T03:10:38.003Z,13.50
2019-05-20T03:13:41.566Z,13.50
2019-05-20T03:16:45.230Z,13.50
2019-05-20T03:19:48.968Z,13.50
2019-05-20T03:22:52.637Z,13.40
2019-05-20T03:25:56.311Z,13.30
2019-05-20T03:28:59.844Z,13.30
2019-05-20T03:32:03.412Z,13.30
2019-05-20T03:35:07.761Z,13.30
2019-05-20T03:38:11.252Z,13.30
2019-05-20T03:41:14.805Z,13.30
2019-05-20T03:44:18.275Z,13.30
2019-05-20T03:47:21.847Z,13.30
2019-05-20T03:50:25.382Z,13.40
2019-05-20T03:53:29.013Z,13.40
2019-05-20T03:56:32.487Z,13.50
2019-05-20T03:59:35.987Z,13.50
2019-05-20T04:02:39.451Z,13.50
2019-05-20T04:05:43.485Z,13.50
2019-05-20T04:08:46.948Z,13.50
2019-05-20T04:11:50.441Z,13.60
2019-05-20T04:14:53.896Z,13.70
2019-05-20T04:17:57.431Z,13.80
2019-05-20T04:21:00.947Z,13.80
2019-05-20T04:24:05.091Z,13.90
2019-05-20T04:27:08.990Z,14.10
2019-05-20T04:30:12.501Z,14.20
2019-05-20T04:33:16.040Z,14.40
2019-05-20T04:36:19.594Z,14.50
2019-05-20T04:39:23.136Z,14.60
2019-05-20T04:42:26.690Z,14.90
2019-05-20T04:45:30.265Z,15.10
2019-05-20T04:48:33.723Z,15.30
2019-05-20T04:51:37.205Z,15.50
2019-05-20T04:54:40.696Z,15.80
2019-05-20T04:57:44.269Z,15.90
2019-05-20T05:00:50.417Z,16.20
2019-05-20T05:03:54.036Z,16.40
2019-05-20T05:06:57.613Z,16.70
2019-05-20T05:10:01.254Z,17.00
2019-05-20T05:13:04.719Z,17.30
2019-05-20T05:16:08.452Z,17.60
2019-05-20T05:19:11.924Z,17.90
2019-05-20T05:22:15.489Z,18.90
2019-05-20T05:25:18.991Z,20.20
2019-05-20T05:28:22.590Z,21.40
2019-05-20T05:31:26.299Z,22.20
2019-05-20T05:34:29.826Z,23.00
2019-05-20T05:37:33.323Z,24.00
2019-05-20T05:40:36.813Z,25.00
2019-05-20T05:43:40.350Z,25.90
2019-05-20T05:46:43.921Z,26.70
2019-05-20T05:49:47.441Z,27.10
2019-05-20T05:52:50.952Z,27.20
2019-05-20T05:55:54.415Z,27.00
2019-05-20T05:58:57.976Z,27.80
2019-05-20T06:02:01.462Z,28.50
2019-05-20T06:05:05.800Z,29.10
2019-05-20T06:08:09.330Z,29.40
2019-05-20T06:11:12.841Z,29.70
2019-05-20T06:14:16.469Z,29.80
2019-05-20T06:17:20.073Z,29.50
2019-05-20T06:20:23.740Z,28.20
2019-05-20T06:23:27.243Z,26.60
2019-05-20T06:26:30.736Z,25.20
2019-05-20T06:29:34.193Z,24.30
2019-05-20T06:32:37.822Z,23.40
2019-05-20T06:35:41.385Z,22.60
2019-05-20T06:38:46.264Z,21.80
2019-05-20T06:41:49.829Z,21.30
2019-05-20T06:44:57.130Z,20.80
2019-05-20T06:47:58.520Z,20.70
2019-05-20T06:51:02.072Z,20.70
2019-05-20T06:54:05.685Z,20.80
2019-05-20T06:57:09.264Z,20.90
2019-05-20T07:00:13.641Z,21.00
2019-05-20T07:03:17.102Z,21.10
2019-05-20T07:06:20.665Z,21.20
2019-05-20T07:09:24.125Z,21.40
2019-05-20T07:12:40.563Z,21.40
2019-05-20T07:15:32.909Z,21.50
2019-05-20T07:18:36.372Z,21.40
2019-05-20T07:21:39.873Z,21.10
2019-05-20T07:24:43.412Z,21.10
2019-05-20T07:27:46.961Z,21.10
2019-05-20T07:30:50.459Z,21.10
2019-05-20T07:33:53.912Z,21.20
2019-05-20T07:37:03.062Z,21.50
2019-05-20T07:40:02.662Z,21.60
2019-05-20T07:43:06.238Z,21.80
2019-05-20T07:46:10.821Z,21.90
2019-05-20T07:49:15.229Z,22.00
2019-05-20T07:52:20.067Z,22.10
2019-05-20T07:55:26.548Z,22.20
2019-05-20T07:58:33.711Z,23.00
2019-05-20T08:01:37.537Z,23.90
2019-05-20T08:04:41.037Z,24.60
2019-05-20T08:07:51.725Z,25.30
2019-05-20T08:10:49.761Z,25.80
2019-05-20T08:13:53.279Z,25.30
2019-05-20T08:16:56.883Z,24.90
2019-05-20T08:20:00.513Z,24.90
2019-05-20T08:23:04.041Z,25.00
2019-05-20T08:26:07.765Z,25.80
2019-05-20T08:29:11.244Z,26.30
2019-05-20T08:32:14.790Z,26.70
2019-05-20T08:35:18.327Z,26.60
2019-05-20T08:38:21.841Z,26.40
2019-05-20T08:41:25.439Z,26.60
2019-05-20T08:44:29.144Z,26.50
2019-05-20T08:47:33.069Z,26.20
2019-05-20T08:50:36.769Z,25.80
2019-05-20T08:53:40.314Z,25.80
2019-05-20T08:56:43.944Z,26.10
2019-05-20T08:59:47.503Z,25.70
2019-05-20T09:02:51.187Z,25.60
2019-05-20T09:05:54.689Z,25.60
2019-05-20T09:08:58.253Z,25.50
2019-05-20T09:12:01.875Z,25.30
2019-05-20T09:15:07.375Z,25.40
2019-05-20T09:18:11.005Z,25.30
2019-05-20T09:21:14.647Z,24.90
2019-05-20T09:24:19.113Z,24.60
2019-05-20T09:27:22.720Z,24.30
2019-05-20T09:30:26.329Z,24.20
2019-05-20T09:33:31.271Z,24.20
2019-05-20T09:36:35.045Z,24.30
2019-05-20T09:39:38.537Z,24.00
2019-05-20T09:42:42.039Z,23.80
2019-05-20T09:45:45.632Z,23.70
2019-05-20T09:48:49.123Z,23.60
2019-05-20T09:51:52.575Z,23.60
2019-05-20T09:54:56.076Z,23.70
2019-05-20T09:57:59.544Z,23.50
2019-05-20T10:01:03.111Z,23.50
2019-05-20T10:04:06.708Z,23.50
2019-05-20T10:07:10.286Z,23.40
2019-05-20T10:10:14.265Z,23.10
2019-05-20T10:13:17.761Z,22.80
2019-05-20T10:16:30.345Z,22.80
2019-05-20T10:19:33.872Z,22.70
2019-05-20T10:22:37.366Z,23.00
2019-05-20T10:25:40.872Z,23.30
2019-05-20T10:28:47.184Z,23.40
2019-05-20T10:31:49.617Z,23.40
2019-05-20T10:34:53.112Z,23.30
2019-05-20T10:37:56.649Z,23.00
2019-05-20T10:41:00.136Z,22.70
2019-05-20T10:44:04.341Z,22.70
2019-05-20T10:47:07.909Z,22.70
2019-05-20T10:50:11.839Z,22.60
2019-05-20T10:53:15.296Z,22.50
2019-05-20T10:56:18.870Z,22.50
2019-05-20T10:59:33.558Z,22.30
2019-05-20T11:02:37.120Z,22.20
2019-05-20T11:05:40.737Z,22.20
2019-05-20T11:08:44.301Z,22.10
2019-05-20T11:11:47.774Z,22.00
2019-05-20T11:14:51.334Z,21.90
2019-05-20T11:17:54.834Z,21.90
2019-05-20T11:20:58.382Z,21.90
2019-05-20T11:24:01.913Z,22.00
2019-05-20T11:27:05.473Z,22.00
2019-05-20T11:30:10.842Z,22.00
2019-05-20T11:33:14.345Z,22.00
2019-05-20T11:36:17.810Z,22.10
